Time;durP1;ratioP1;P1;durP2;ratioP2;P2;SDS_P1;SDS_P2;PMS_P1;PMS_P2;Temp;Humidity;BMP_temperature;BMP_pressure;BME280_temperature;BME280_humidity;BME280_pressure;Samples;Min_cycle;Max_cycle;Signal;HPM_P1;HPM_P2
2022/04/15 00:01:08;;;;;;;;;;;14.50;99.90;;;;;;5003920;28;19944;-85
2022/04/15 00:03:34;;;;;;;;;;;14.40;99.90;;;;;;5004687;28;19910;-86
2022/04/15 00:06:00;;;;;;;;;;;14.40;99.90;;;;;;5003348;28;19914;-85
2022/04/15 00:08:26;;;;;;;;;;;14.40;99.90;;;;;;5002794;28;19918;-85
2022/04/15 00:10:51;;;;;;;;;;;14.40;99.90;;;;;;5003849;28;19912;-85
2022/04/15 00:13:24;;;;;;;;;;;14.40;99.90;;;;;;5004515;28;20093;-85
2022/04/15 00:15:50;;;;;;;;;;;14.40;99.90;;;;;;5004502;28;19905;-85
2022/04/15 00:18:16;;;;;;;;;;;14.40;99.90;;;;;;5003742;28;19905;-85
2022/04/15 00:20:42;;;;;;;;;;;14.40;99.90;;;;;;5003889;28;19906;-85
2022/04/15 00:23:07;;;;;;;;;;;14.40;99.90;;;;;;5003957;28;20221;-85
2022/04/15 00:25:33;;;;;;;;;;;14.40;99.90;;;;;;5002459;28;19906;-85
2022/04/15 00:27:58;;;;;;;;;;;14.40;99.90;;;;;;5002760;28;19913;-85
2022/04/15 00:30:24;;;;;;;;;;;14.30;99.90;;;;;;5003711;28;19980;-85
2022/04/15 00:32:49;;;;;;;;;;;14.30;99.90;;;;;;5002437;28;19906;-85
2022/04/15 00:35:15;;;;;;;;;;;14.30;99.90;;;;;;5004413;28;19906;-85
2022/04/15 00:37:40;;;;;;;;;;;14.30;99.90;;;;;;5004394;28;19917;-85
2022/04/15 00:40:08;;;;;;;;;;;14.30;99.90;;;;;;5004328;28;19906;-85
2022/04/15 00:42:34;;;;;;;;;;;14.20;99.90;;;;;;5004042;28;20150;-85
2022/04/15 00:45:00;;;;;;;;;;;14.20;99.90;;;;;;5002624;28;19929;-85
2022/04/15 00:47:41;;;;;;;;;;;14.20;99.90;;;;;;5003338;28;20097;-85
2022/04/15 00:50:07;;;;;;;;;;;14.20;99.90;;;;;;5003863;28;19913;-84
2022/04/15 00:52:37;;;;;;;;;;;14.10;99.90;;;;;;5003009;28;19913;-85
2022/04/15 00:55:03;;;;;;;;;;;14.10;99.90;;;;;;5003831;28;19969;-85
2022/04/15 00:57:30;;;;;;;;;;;14.10;99.90;;;;;;5004001;28;19906;-84
2022/04/15 00:59:57;;;;;;;;;;;14.10;99.90;;;;;;5003944;28;20024;-84
2022/04/15 01:02:24;;;;;;;;;;;14.10;99.90;;;;;;5002358;28;19906;-84
2022/04/15 01:04:51;;;;;;;;;;;14.00;99.90;;;;;;5001219;28;19906;-84
2022/04/15 01:07:19;;;;;;;;;;;14.00;99.90;;;;;;5002426;28;19909;-85
2022/04/15 01:09:47;;;;;;;;;;;14.00;99.90;;;;;;5003569;28;20044;-85
2022/04/15 01:12:13;;;;;;;;;;;13.90;99.90;;;;;;5002984;28;20093;-84
2022/04/15 01:14:39;;;;;;;;;;;13.90;99.90;;;;;;5003650;28;19907;-84
2022/04/15 01:17:04;;;;;;;;;;;13.80;99.90;;;;;;5003228;28;19912;-85
2022/04/15 01:19:30;;;;;;;;;;;13.80;99.90;;;;;;5002014;28;19910;-84
2022/04/15 01:21:59;;;;;;;;;;;13.70;99.90;;;;;;5003257;28;19913;-84
2022/04/15 01:24:25;;;;;;;;;;;13.70;99.90;;;;;;5001807;28;19945;-85
2022/04/15 01:26:50;;;;;;;;;;;13.70;99.90;;;;;;5002762;28;19909;-84
2022/04/15 01:29:16;;;;;;;;;;;13.70;99.90;;;;;;5003420;28;19909;-85
2022/04/15 01:31:42;;;;;;;;;;;13.70;99.90;;;;;;5001614;28;19965;-85
2022/04/15 01:34:07;;;;;;;;;;;13.70;99.90;;;;;;5002176;28;19906;-85
2022/04/15 01:36:33;;;;;;;;;;;13.70;99.90;;;;;;5003303;28;19913;-85
2022/04/15 01:39:00;;;;;;;;;;;13.70;99.90;;;;;;5001691;28;19912;-85
2022/04/15 01:41:25;;;;;;;;;;;13.70;99.90;;;;;;5003317;28;20825;-85
2022/04/15 01:43:51;;;;;;;;;;;13.70;99.90;;;;;;5003101;28;19906;-85
2022/04/15 01:46:17;;;;;;;;;;;13.60;99.90;;;;;;5001954;28;20479;-84
2022/04/15 01:48:42;;;;;;;;;;;13.60;99.90;;;;;;5002690;28;19921;-85
2022/04/15 01:51:08;;;;;;;;;;;13.60;99.90;;;;;;5003528;28;19968;-85
2022/04/15 01:53:33;;;;;;;;;;;13.60;99.90;;;;;;5003077;28;19985;-85
2022/04/15 01:55:59;;;;;;;;;;;13.60;99.90;;;;;;5001786;28;20102;-85
2022/04/15 01:58:24;;;;;;;;;;;13.60;99.90;;;;;;5001815;28;19928;-85
2022/04/15 02:00:50;;;;;;;;;;;13.60;99.90;;;;;;5001269;28;19906;-85
2022/04/15 02:03:15;;;;;;;;;;;13.60;99.90;;;;;;5002028;28;19912;-85
2022/04/15 02:05:41;;;;;;;;;;;13.60;99.90;;;;;;5002784;28;20129;-84
2022/04/15 02:08:06;;;;;;;;;;;13.60;99.90;;;;;;5001443;28;20194;-85
2022/04/15 02:10:32;;;;;;;;;;;13.60;99.90;;;;;;5001718;28;20206;-85
2022/04/15 02:12:57;;;;;;;;;;;13.60;99.90;;;;;;5002639;28;19918;-85
2022/04/15 02:15:23;;;;;;;;;;;13.50;99.90;;;;;;5002661;28;19906;-85
2022/04/15 02:17:48;;;;;;;;;;;13.50;99.90;;;;;;5001785;28;19930;-85
2022/04/15 02:20:14;;;;;;;;;;;13.50;99.90;;;;;;5002602;28;20090;-85
2022/04/15 02:22:39;;;;;;;;;;;13.50;99.90;;;;;;5002177;28;19948;-85
2022/04/15 02:25:05;;;;;;;;;;;13.50;99.90;;;;;;5002656;28;19906;-85
2022/04/15 02:27:31;;;;;;;;;;;13.50;99.90;;;;;;5002422;28;19913;-85
2022/04/15 02:29:57;;;;;;;;;;;13.50;99.90;;;;;;5002398;28;20261;-84
2022/04/15 02:32:23;;;;;;;;;;;13.50;99.90;;;;;;5002107;28;20213;-85
2022/04/15 02:34:48;;;;;;;;;;;13.40;99.90;;;;;;5002698;28;19906;-85
2022/04/15 02:37:14;;;;;;;;;;;13.40;99.90;;;;;;5002293;28;20079;-85
2022/04/15 02:39:40;;;;;;;;;;;13.40;99.90;;;;;;5002350;28;19912;-85
2022/04/15 02:42:05;;;;;;;;;;;13.40;99.90;;;;;;5002007;28;19906;-85
2022/04/15 02:44:31;;;;;;;;;;;13.40;99.90;;;;;;5000801;28;20125;-85
2022/04/15 02:46:59;;;;;;;;;;;13.40;99.90;;;;;;5001234;28;19909;-85
2022/04/15 02:49:26;;;;;;;;;;;13.40;99.90;;;;;;5000275;28;19909;-87
2022/04/15 02:51:53;;;;;;;;;;;13.40;99.90;;;;;;5001164;28;19910;-87
2022/04/15 02:54:18;;;;;;;;;;;13.40;99.90;;;;;;4999178;28;19932;-86
2022/04/15 02:56:44;;;;;;;;;;;13.40;99.90;;;;;;5000383;28;19910;-86
2022/04/15 02:59:09;;;;;;;;;;;13.40;99.90;;;;;;5000556;28;19906;-87
2022/04/15 03:01:35;;;;;;;;;;;13.40;99.90;;;;;;5000530;28;19933;-87
2022/04/15 03:04:00;;;;;;;;;;;13.40;99.90;;;;;;5001195;28;19913;-87
2022/04/15 03:06:26;;;;;;;;;;;13.30;99.90;;;;;;5001260;28;19913;-84
2022/04/15 03:08:51;;;;;;;;;;;13.30;99.90;;;;;;4999169;28;19918;-84
2022/04/15 03:11:17;;;;;;;;;;;13.30;99.90;;;;;;4999112;28;19914;-84
2022/04/15 03:13:42;;;;;;;;;;;13.30;99.90;;;;;;4998480;28;19914;-85
2022/04/15 03:16:08;;;;;;;;;;;13.30;99.90;;;;;;5003537;28;20363;-84
2022/04/15 03:18:33;;;;;;;;;;;13.30;99.90;;;;;;5004833;28;19937;-84
2022/04/15 03:20:59;;;;;;;;;;;13.20;99.90;;;;;;5004668;28;20186;-85
2022/04/15 03:23:24;;;;;;;;;;;13.20;99.90;;;;;;5003397;28;19913;-85
2022/04/15 03:25:50;;;;;;;;;;;13.20;99.90;;;;;;5004512;28;19933;-85
2022/04/15 03:28:16;;;;;;;;;;;13.20;99.90;;;;;;5003953;28;19958;-85
2022/04/15 03:30:41;;;;;;;;;;;13.10;99.90;;;;;;5003176;28;19912;-85
2022/04/15 03:33:07;;;;;;;;;;;13.10;99.90;;;;;;5005021;28;20122;-84
2022/04/15 03:35:33;;;;;;;;;;;13.00;99.90;;;;;;5005463;28;19906;-85
2022/04/15 03:37:58;;;;;;;;;;;13.00;99.90;;;;;;5003985;28;20161;-85
2022/04/15 03:40:24;;;;;;;;;;;13.00;99.90;;;;;;5004908;28;19944;-85
2022/04/15 03:42:50;;;;;;;;;;;12.90;99.90;;;;;;5004669;28;19910;-85
2022/04/15 03:45:19;;;;;;;;;;;12.90;99.90;;;;;;5003754;28;19941;-85
2022/04/15 03:47:54;;;;;;;;;;;12.80;99.90;;;;;;5004729;28;20123;-85
2022/04/15 03:50:20;;;;;;;;;;;12.80;99.90;;;;;;5003187;28;19905;-85
2022/04/15 03:52:46;;;;;;;;;;;12.80;99.90;;;;;;5002682;28;19912;-85
2022/04/15 03:55:13;;;;;;;;;;;12.80;99.90;;;;;;4998209;28;19906;-85
2022/04/15 03:57:39;;;;;;;;;;;12.80;99.90;;;;;;5003725;28;19906;-85
2022/04/15 04:00:06;;;;;;;;;;;12.80;99.90;;;;;;5003382;28;20133;-85
2022/04/15 04:02:31;;;;;;;;;;;12.80;99.90;;;;;;5004001;28;19952;-84
2022/04/15 04:04:57;;;;;;;;;;;12.80;99.90;;;;;;5002596;28;19906;-85
2022/04/15 04:07:22;;;;;;;;;;;12.80;99.90;;;;;;5003984;28;19913;-85
2022/04/15 04:09:48;;;;;;;;;;;12.80;99.90;;;;;;5002855;28;19932;-85
2022/04/15 04:12:13;;;;;;;;;;;12.80;99.90;;;;;;5001166;28;19996;-85
2022/04/15 04:14:39;;;;;;;;;;;12.80;99.90;;;;;;5002986;28;19906;-85
2022/04/15 04:17:04;;;;;;;;;;;12.80;99.90;;;;;;5003687;28;19905;-85
2022/04/15 04:19:30;;;;;;;;;;;12.70;99.90;;;;;;5002431;28;19983;-85
2022/04/15 04:21:55;;;;;;;;;;;12.70;99.90;;;;;;5004212;28;20198;-84
2022/04/15 04:24:21;;;;;;;;;;;12.70;99.90;;;;;;5002578;28;20265;-84
2022/04/15 04:26:46;;;;;;;;;;;12.60;99.90;;;;;;5003059;28;19906;-85
2022/04/15 04:29:12;;;;;;;;;;;12.60;99.90;;;;;;5002971;28;19917;-84
2022/04/15 04:31:38;;;;;;;;;;;12.60;99.90;;;;;;5004229;28;19909;-85
2022/04/15 04:34:03;;;;;;;;;;;12.60;99.90;;;;;;5003360;28;19944;-84
2022/04/15 04:36:29;;;;;;;;;;;12.70;99.90;;;;;;5004363;28;20176;-87
2022/04/15 04:38:54;;;;;;;;;;;12.70;99.90;;;;;;5004413;28;20113;-86
2022/04/15 04:41:20;;;;;;;;;;;12.70;99.90;;;;;;5003576;28;19929;-87
2022/04/15 04:43:45;;;;;;;;;;;12.70;99.90;;;;;;5004216;28;20101;-87
2022/04/15 04:46:11;;;;;;;;;;;12.70;99.90;;;;;;5003892;28;20205;-86
2022/04/15 04:48:36;;;;;;;;;;;12.70;99.90;;;;;;5002694;28;19913;-87
2022/04/15 04:51:02;;;;;;;;;;;12.70;99.90;;;;;;5003797;28;19906;-87
2022/04/15 04:53:28;;;;;;;;;;;12.70;99.90;;;;;;5002292;28;19941;-86
2022/04/15 04:55:53;;;;;;;;;;;12.70;99.90;;;;;;5004066;28;19944;-87
2022/04/15 04:58:19;;;;;;;;;;;12.70;99.90;;;;;;5002857;28;19906;-86
2022/04/15 05:00:44;;;;;;;;;;;12.60;99.90;;;;;;5002406;28;19905;-87
2022/04/15 05:03:11;;;;;;;;;;;12.70;99.90;;;;;;5003160;28;19906;-86
2022/04/15 05:05:37;;;;;;;;;;;12.70;99.90;;;;;;5003005;28;19929;-84
2022/04/15 05:08:02;;;;;;;;;;;12.70;99.90;;;;;;5003570;28;19914;-85
2022/04/15 05:10:28;;;;;;;;;;;12.70;99.90;;;;;;5003571;28;19917;-85
2022/04/15 05:12:54;;;;;;;;;;;12.60;99.90;;;;;;5002583;28;20134;-90
2022/04/15 05:15:19;;;;;;;;;;;12.60;99.90;;;;;;4996789;28;19921;-89
2022/04/15 05:17:45;;;;;;;;;;;12.60;99.90;;;;;;4990447;28;20305;-89
2022/04/15 05:20:11;;;;;;;;;;;12.60;99.90;;;;;;4990122;28;20343;-89
2022/04/15 05:22:36;;;;;;;;;;;12.60;99.90;;;;;;4988598;28;19914;-89
2022/04/15 05:25:02;;;;;;;;;;;12.50;99.90;;;;;;4989559;28;19910;-89
2022/04/15 05:27:28;;;;;;;;;;;12.50;99.90;;;;;;4986956;28;19918;-93
2022/04/15 05:29:54;;;;;;;;;;;12.50;99.90;;;;;;4988947;28;19909;-90
2022/04/15 05:32:23;;;;;;;;;;;12.50;99.90;;;;;;4986118;28;19917;-91
2022/04/15 05:34:48;;;;;;;;;;;12.40;99.90;;;;;;4984415;28;19918;-92
2022/04/15 05:37:14;;;;;;;;;;;12.40;99.90;;;;;;4992039;28;19916;-90
2022/04/15 05:39:39;;;;;;;;;;;12.40;99.90;;;;;;4993558;28;20370;-90
2022/04/15 05:42:05;;;;;;;;;;;12.40;99.90;;;;;;4999652;28;19917;-90
2022/04/15 05:44:31;;;;;;;;;;;12.40;99.90;;;;;;4999954;28;19914;-90
2022/04/15 05:46:56;;;;;;;;;;;12.40;99.90;;;;;;4998158;28;19937;-91
2022/04/15 05:49:24;;;;;;;;;;;12.50;99.90;;;;;;4994229;28;20098;-90
2022/04/15 05:51:50;;;;;;;;;;;12.60;99.90;;;;;;4999662;28;19906;-90
2022/04/15 05:54:15;;;;;;;;;;;12.60;99.90;;;;;;5001525;28;19905;-91
2022/04/15 05:56:41;;;;;;;;;;;12.70;99.90;;;;;;5000186;28;19906;-90
2022/04/15 05:59:07;;;;;;;;;;;12.70;99.90;;;;;;4996834;28;19910;-89
2022/04/15 06:01:32;;;;;;;;;;;12.80;99.90;;;;;;4989859;28;19968;-89
2022/04/15 06:03:58;;;;;;;;;;;12.90;99.90;;;;;;4990280;28;19988;-89
2022/04/15 06:06:24;;;;;;;;;;;12.90;99.90;;;;;;4991719;28;19953;-90
2022/04/15 06:08:49;;;;;;;;;;;13.00;99.90;;;;;;4989898;28;19928;-90
2022/04/15 06:11:15;;;;;;;;;;;13.10;99.90;;;;;;4991387;28;19910;-90
2022/04/15 06:13:46;;;;;;;;;;;13.20;99.90;;;;;;4990059;28;20058;-90
2022/04/15 06:16:15;;;;;;;;;;;13.20;99.90;;;;;;4990176;28;19917;-90
2022/04/15 06:18:41;;;;;;;;;;;13.30;99.90;;;;;;4989984;28;20294;-89
2022/04/15 06:21:06;;;;;;;;;;;13.30;99.90;;;;;;4991736;28;20181;-90
2022/04/15 06:23:32;;;;;;;;;;;13.40;99.90;;;;;;4991377;28;19932;-91
2022/04/15 06:25:57;;;;;;;;;;;13.40;99.90;;;;;;4990135;28;19914;-91
2022/04/15 06:28:23;;;;;;;;;;;13.50;99.90;;;;;;4990698;28;20453;-92
2022/04/15 06:30:49;;;;;;;;;;;13.60;99.90;;;;;;4990328;28;19909;-88
2022/04/15 06:33:15;;;;;;;;;;;13.60;99.90;;;;;;4991708;28;19910;-88
2022/04/15 06:35:41;;;;;;;;;;;13.70;99.90;;;;;;4992068;28;20063;-91
2022/04/15 06:38:07;;;;;;;;;;;13.80;99.90;;;;;;4992269;28;20394;-88
2022/04/15 06:40:33;;;;;;;;;;;14.00;99.90;;;;;;4990686;28;20005;-89
2022/04/15 06:42:59;;;;;;;;;;;14.00;99.90;;;;;;4990807;28;20235;-90
2022/04/15 06:45:27;;;;;;;;;;;14.00;99.90;;;;;;4991513;28;20182;-95
2022/04/15 06:47:52;;;;;;;;;;;14.10;99.90;;;;;;4986887;28;19941;-92
2022/04/15 06:53:16;;;;;;;;;;;14.20;99.90;;;;;;4989736;28;20453;-86
2022/04/15 06:55:41;;;;;;;;;;;14.30;99.90;;;;;;5002763;28;19937;-86
2022/04/15 06:58:07;;;;;;;;;;;14.40;99.90;;;;;;4992504;28;20343;-86
2022/04/15 07:00:33;;;;;;;;;;;14.50;99.90;;;;;;4993849;28;20302;-86
2022/04/15 07:02:58;;;;;;;;;;;14.60;99.90;;;;;;4992618;28;20375;-87
2022/04/15 07:05:25;;;;;;;;;;;14.60;99.90;;;;;;4993748;28;19914;-86
2022/04/15 07:07:50;;;;;;;;;;;14.80;99.90;;;;;;4993432;28;19924;-86
2022/04/15 07:10:16;;;;;;;;;;;14.90;99.90;;;;;;4991292;28;19926;-86
2022/04/15 07:12:44;;;;;;;;;;;15.00;99.90;;;;;;4988212;28;19921;-86
2022/04/15 07:15:10;;;;;;;;;;;15.10;99.90;;;;;;4993452;28;19910;-87
2022/04/15 07:17:35;;;;;;;;;;;15.10;99.90;;;;;;4992714;28;19910;-88
2022/04/15 07:20:01;;;;;;;;;;;15.20;99.90;;;;;;4992557;28;19910;-87
2022/04/15 07:22:26;;;;;;;;;;;15.20;99.90;;;;;;4992921;28;20239;-88
2022/04/15 07:24:52;;;;;;;;;;;15.30;99.90;;;;;;4992924;28;20275;-87
2022/04/15 07:27:17;;;;;;;;;;;15.40;99.90;;;;;;4993970;28;19918;-86
2022/04/15 07:29:44;;;;;;;;;;;15.40;99.90;;;;;;4992287;28;19918;-86
2022/04/15 07:32:10;;;;;;;;;;;15.40;99.90;;;;;;4993422;28;19914;-86
2022/04/15 07:34:36;;;;;;;;;;;15.50;99.90;;;;;;4992368;28;19910;-86
2022/04/15 07:37:03;;;;;;;;;;;15.70;99.90;;;;;;4995731;28;19910;-86
2022/04/15 07:39:29;;;;;;;;;;;15.80;99.90;;;;;;4992131;28;19917;-86
2022/04/15 07:41:55;;;;;;;;;;;15.90;99.90;;;;;;4992574;28;19909;-86
2022/04/15 07:44:21;;;;;;;;;;;16.00;99.90;;;;;;4993456;28;19917;-86
2022/04/15 07:46:46;;;;;;;;;;;16.00;99.90;;;;;;4993042;28;20464;-86
2022/04/15 07:49:12;;;;;;;;;;;16.10;99.90;;;;;;4994890;28;19922;-80
2022/04/15 07:51:38;;;;;;;;;;;16.20;99.90;;;;;;4993215;28;19917;-80
2022/04/15 07:54:04;;;;;;;;;;;16.40;99.90;;;;;;4993390;28;19921;-80
2022/04/15 07:56:30;;;;;;;;;;;16.50;99.90;;;;;;4993289;28;19910;-80
2022/04/15 07:58:56;;;;;;;;;;;16.60;99.90;;;;;;4992591;28;19932;-80
2022/04/15 08:01:21;;;;;;;;;;;16.70;99.90;;;;;;4992478;28;19913;-80
2022/04/15 08:03:47;;;;;;;;;;;16.90;99.90;;;;;;4993239;28;19921;-80
2022/04/15 08:06:13;;;;;;;;;;;17.00;99.90;;;;;;4993330;28;19914;-81
2022/04/15 08:08:39;;;;;;;;;;;17.10;99.90;;;;;;4991998;28;19928;-80
2022/04/15 08:11:04;;;;;;;;;;;17.20;99.90;;;;;;4992283;28;19957;-81
2022/04/15 08:13:30;;;;;;;;;;;17.30;99.90;;;;;;4994166;28;19910;-81
2022/04/15 08:15:56;;;;;;;;;;;17.40;99.90;;;;;;4992941;28;20350;-80
2022/04/15 08:18:22;;;;;;;;;;;17.50;99.90;;;;;;4993755;28;19972;-80
2022/04/15 08:20:48;;;;;;;;;;;17.70;99.90;;;;;;4992864;28;19916;-80
2022/04/15 08:23:14;;;;;;;;;;;17.80;99.90;;;;;;4994689;28;20279;-81
2022/04/15 08:25:39;;;;;;;;;;;17.90;99.90;;;;;;4992931;28;19937;-80
2022/04/15 08:28:05;;;;;;;;;;;18.00;99.90;;;;;;4994437;28;20303;-81
2022/04/15 08:30:33;;;;;;;;;;;18.20;99.90;;;;;;4993888;28;20050;-81
2022/04/15 08:33:00;;;;;;;;;;;18.30;99.90;;;;;;4993326;28;20008;-80
2022/04/15 08:35:26;;;;;;;;;;;18.30;99.90;;;;;;4992736;28;19922;-80
2022/04/15 08:37:52;;;;;;;;;;;18.40;99.90;;;;;;4991898;28;19913;-80
2022/04/15 08:40:18;;;;;;;;;;;18.50;99.90;;;;;;4992470;28;19921;-80
2022/04/15 08:42:44;;;;;;;;;;;18.60;99.90;;;;;;4992494;28;19909;-79
2022/04/15 08:45:10;;;;;;;;;;;18.70;99.90;;;;;;4992490;28;19914;-80
2022/04/15 08:47:36;;;;;;;;;;;18.70;99.90;;;;;;4990817;28;19988;-79
2022/04/15 08:50:03;;;;;;;;;;;18.80;99.90;;;;;;4992253;28;19961;-80
2022/04/15 08:52:29;;;;;;;;;;;18.90;99.90;;;;;;4992572;28;19910;-79
2022/04/15 08:54:55;;;;;;;;;;;19.00;99.90;;;;;;4994584;28;19979;-78
2022/04/15 08:57:21;;;;;;;;;;;19.10;99.90;;;;;;4993923;28;20448;-80
2022/04/15 08:59:47;;;;;;;;;;;19.20;99.90;;;;;;4991696;28;19917;-82
2022/04/15 09:02:15;;;;;;;;;;;19.30;99.90;;;;;;4991745;28;20020;-80
2022/04/15 09:04:40;;;;;;;;;;;19.50;99.90;;;;;;4992233;28;20370;-80
2022/04/15 09:07:06;;;;;;;;;;;19.50;99.90;;;;;;4992719;28;19924;-80
2022/04/15 09:09:32;;;;;;;;;;;19.50;99.90;;;;;;4990668;28;19976;-80
2022/04/15 09:11:59;;;;;;;;;;;19.60;99.90;;;;;;4992499;28;19909;-80
2022/04/15 09:14:25;;;;;;;;;;;19.60;99.90;;;;;;4994032;28;19910;-80
2022/04/15 09:16:51;;;;;;;;;;;19.70;99.90;;;;;;4997098;28;19910;-80
2022/04/15 09:19:17;;;;;;;;;;;19.80;99.90;;;;;;4993098;28;20357;-80
2022/04/15 09:21:51;;;;;;;;;;;19.90;99.90;;;;;;4994949;28;19910;-80
2022/04/15 09:24:17;;;;;;;;;;;19.90;99.90;;;;;;4993255;28;19917;-80
2022/04/15 09:26:45;;;;;;;;;;;20.00;99.90;;;;;;4994583;28;20053;-80
2022/04/15 09:29:14;;;;;;;;;;;20.10;99.90;;;;;;4991342;28;19918;-82
2022/04/15 09:31:39;;;;;;;;;;;20.10;99.90;;;;;;4990569;28;19936;-80
2022/04/15 09:34:06;;;;;;;;;;;20.20;99.90;;;;;;4995599;28;20190;-80
2022/04/15 09:36:35;;;;;;;;;;;20.30;99.90;;;;;;4988544;28;19914;-80
2022/04/15 09:39:04;;;;;;;;;;;20.40;99.90;;;;;;4989925;28;19965;-80
2022/04/15 09:41:29;;;;;;;;;;;20.50;99.90;;;;;;4985947;28;19937;-80
2022/04/15 09:43:59;;;;;;;;;;;20.50;99.90;;;;;;4991476;28;19910;-80
2022/04/15 09:46:27;;;;;;;;;;;20.60;99.90;;;;;;4990847;28;19910;-81
2022/04/15 09:49:03;;;;;;;;;;;20.70;99.90;;;;;;4990299;28;20370;-80
2022/04/15 09:51:29;;;;;;;;;;;20.70;99.90;;;;;;4991307;28;19965;-80
2022/04/15 09:53:59;;;;;;;;;;;20.80;99.90;;;;;;4995216;28;19961;-80
2022/04/15 09:56:25;;;;;;;;;;;20.90;99.90;;;;;;4989940;28;19920;-80
2022/04/15 09:58:55;;;;;;;;;;;20.90;99.90;;;;;;4994265;28;19914;-80
2022/04/15 10:01:23;;;;;;;;;;;21.00;99.90;;;;;;4990844;28;20394;-81
2022/04/15 10:03:49;;;;;;;;;;;21.10;99.90;;;;;;4990349;28;19914;-81
2022/04/15 10:06:15;;;;;;;;;;;21.10;99.90;;;;;;4990848;28;20029;-79
2022/04/15 10:08:42;;;;;;;;;;;21.10;99.90;;;;;;4990771;28;19922;-79
2022/04/15 10:11:08;;;;;;;;;;;21.20;99.90;;;;;;4991262;28;19910;-79
2022/04/15 10:13:35;;;;;;;;;;;21.20;99.90;;;;;;4989417;28;19957;-79
2022/04/15 10:16:01;;;;;;;;;;;21.20;99.90;;;;;;4990626;28;19932;-79
2022/04/15 10:18:27;;;;;;;;;;;21.20;99.90;;;;;;4990535;28;19914;-78
2022/04/15 10:20:53;;;;;;;;;;;21.30;99.90;;;;;;4990668;28;20386;-79
2022/04/15 10:23:20;;;;;;;;;;;21.40;99.90;;;;;;4990640;28;19917;-79
2022/04/15 10:25:46;;;;;;;;;;;21.50;99.90;;;;;;4990649;28;19957;-79
2022/04/15 10:28:13;;;;;;;;;;;21.60;99.90;;;;;;4988694;28;19929;-79
2022/04/15 10:30:44;;;;;;;;;;;21.60;99.90;;;;;;4990385;28;19917;-80
2022/04/15 10:33:26;;;;;;;;;;;21.70;99.90;;;;;;4990079;28;20004;-80
2022/04/15 10:35:52;;;;;;;;;;;21.80;99.90;;;;;;4990407;28;19918;-80
2022/04/15 10:38:18;;;;;;;;;;;21.90;99.90;;;;;;4990005;28;19936;-80
2022/04/15 10:40:44;;;;;;;;;;;22.00;99.90;;;;;;4990374;28;20004;-80
2022/04/15 10:43:20;;;;;;;;;;;22.00;99.90;;;;;;4990367;28;20343;-80
2022/04/15 10:45:46;;;;;;;;;;;22.00;99.90;;;;;;4990158;28;19910;-80
2022/04/15 10:48:11;;;;;;;;;;;22.00;99.90;;;;;;4989242;28;19944;-80
2022/04/15 10:50:38;;;;;;;;;;;22.00;99.90;;;;;;4990452;28;19976;-80
2022/04/15 10:53:25;;;;;;;;;;;22.10;99.90;;;;;;4990431;28;20130;-81
2022/04/15 10:55:54;;;;;;;;;;;22.10;99.90;;;;;;4990611;28;19910;-80
2022/04/15 10:58:20;;;;;;;;;;;22.20;99.90;;;;;;4989801;28;20461;-80
2022/04/15 11:01:15;;;;;;;;;;;22.30;99.90;;;;;;4990061;28;20314;-81
2022/04/15 11:03:42;;;;;;;;;;;22.40;99.90;;;;;;4992844;28;19921;-81
2022/04/15 11:06:09;;;;;;;;;;;22.50;99.90;;;;;;4999739;28;19906;-81
2022/04/15 11:08:48;;;;;;;;;;;22.50;99.90;;;;;;4993736;28;19956;-80
2022/04/15 11:11:14;;;;;;;;;;;22.50;99.90;;;;;;4996275;28;20325;-80
2022/04/15 11:13:40;;;;;;;;;;;22.60;99.90;;;;;;4989894;28;19921;-80
2022/04/15 11:18:43;;;;;;;;;;;22.70;99.90;;;;;;4995095;28;20313;-80
2022/04/15 11:21:15;;;;;;;;;;;22.80;99.70;;;;;;5001165;28;19977;-81
2022/04/15 11:23:42;;;;;;;;;;;22.90;98.70;;;;;;4998932;28;19949;-80
2022/04/15 11:26:08;;;;;;;;;;;22.90;99.60;;;;;;4998336;28;19906;-80
2022/04/15 11:28:34;;;;;;;;;;;23.00;99.30;;;;;;4995732;28;20102;-80
2022/04/15 11:30:59;;;;;;;;;;;23.10;99.90;;;;;;4998443;28;19906;-80
2022/04/15 11:33:25;;;;;;;;;;;23.20;98.80;;;;;;4995337;28;19972;-80
2022/04/15 11:35:50;;;;;;;;;;;23.20;98.20;;;;;;4998506;28;20197;-80
2022/04/15 11:38:16;;;;;;;;;;;23.20;99.70;;;;;;4996068;28;19948;-80
2022/04/15 11:40:43;;;;;;;;;;;23.30;99.10;;;;;;5004635;28;19910;-79
2022/04/15 11:43:09;;;;;;;;;;;23.40;98.80;;;;;;5004616;28;19914;-80
2022/04/15 11:45:38;;;;;;;;;;;23.50;98.60;;;;;;5003710;28;19912;-80
2022/04/15 11:48:22;;;;;;;;;;;23.70;98.90;;;;;;5002306;28;19937;-80
2022/04/15 11:50:49;;;;;;;;;;;23.80;98.30;;;;;;5004480;28;19910;-81
2022/04/15 11:53:15;;;;;;;;;;;24.00;97.30;;;;;;4994931;28;20297;-81
2022/04/15 11:55:49;;;;;;;;;;;24.10;95.80;;;;;;4997455;28;19993;-80
2022/04/15 11:58:15;;;;;;;;;;;24.20;97.10;;;;;;4994423;28;20102;-80
2022/04/15 12:00:41;;;;;;;;;;;24.50;96.60;;;;;;4999159;28;19906;-80
2022/04/15 12:03:06;;;;;;;;;;;24.50;96.40;;;;;;5004029;28;19917;-80
2022/04/15 12:05:32;;;;;;;;;;;24.50;95.70;;;;;;5004011;28;19921;-80
2022/04/15 12:07:58;;;;;;;;;;;24.60;95.80;;;;;;5003616;28;19921;-80
2022/04/15 12:10:24;;;;;;;;;;;24.40;96.60;;;;;;5003446;28;19910;-80
2022/04/15 12:12:49;;;;;;;;;;;24.40;96.10;;;;;;5002674;28;19921;-81
2022/04/15 12:15:15;;;;;;;;;;;24.50;95.80;;;;;;4998036;28;20004;-81
2022/04/15 12:17:41;;;;;;;;;;;24.60;96.60;;;;;;4996731;28;20012;-81
2022/04/15 12:20:07;;;;;;;;;;;24.70;94.60;;;;;;4992186;28;19964;-81
2022/04/15 12:22:34;;;;;;;;;;;24.80;95.20;;;;;;4992003;28;20103;-81
2022/04/15 12:25:12;;;;;;;;;;;25.00;95.50;;;;;;4993340;28;19945;-80
2022/04/15 12:27:37;;;;;;;;;;;25.20;95.60;;;;;;4992752;28;19945;-80
2022/04/15 12:30:03;;;;;;;;;;;25.00;94.60;;;;;;4993123;28;20194;-81
2022/04/15 12:32:34;;;;;;;;;;;24.60;94.70;;;;;;4992014;28;20502;-81
2022/04/15 12:34:59;;;;;;;;;;;24.60;95.80;;;;;;4992693;28;19936;-81
2022/04/15 12:37:35;;;;;;;;;;;24.70;95.80;;;;;;4994875;28;20226;-82
2022/04/15 12:40:02;;;;;;;;;;;24.80;95.80;;;;;;4992118;28;19937;-82
2022/04/15 12:42:29;;;;;;;;;;;25.10;94.90;;;;;;4992446;28;19914;-82
2022/04/15 12:44:54;;;;;;;;;;;25.30;95.50;;;;;;4992589;28;19929;-81
2022/04/15 12:47:23;;;;;;;;;;;25.30;94.10;;;;;;4993963;28;20029;-82
2022/04/15 12:49:49;;;;;;;;;;;25.20;94.30;;;;;;4992148;28;19914;-81
2022/04/15 12:52:16;;;;;;;;;;;25.00;94.50;;;;;;4993763;28;20321;-81
2022/04/15 12:55:00;;;;;;;;;;;24.80;94.80;;;;;;4995001;28;19906;-82
2022/04/15 12:57:36;;;;;;;;;;;24.80;94.70;;;;;;4993291;28;19952;-81
2022/04/15 13:00:06;;;;;;;;;;;24.70;95.20;;;;;;4991380;28;19945;-81
2022/04/15 13:02:32;;;;;;;;;;;24.60;94.40;;;;;;4995376;28;20270;-81
2022/04/15 13:04:57;;;;;;;;;;;24.60;94.90;;;;;;4993380;28;19917;-81
2022/04/15 13:07:23;;;;;;;;;;;24.80;94.90;;;;;;4991926;28;19925;-81
2022/04/15 13:09:51;;;;;;;;;;;24.70;95.20;;;;;;4991555;28;21797;-82
2022/04/15 13:12:20;;;;;;;;;;;24.70;95.30;;;;;;4994037;28;19913;-82
2022/04/15 13:14:46;;;;;;;;;;;24.60;94.70;;;;;;4994588;28;19937;-81
2022/04/15 13:17:12;;;;;;;;;;;24.60;95.30;;;;;;4991561;28;19972;-81
2022/04/15 13:19:38;;;;;;;;;;;24.90;94.20;;;;;;4992365;28;19910;-82
2022/04/15 13:22:04;;;;;;;;;;;25.00;94.60;;;;;;4992048;28;19916;-81
2022/04/15 13:24:30;;;;;;;;;;;25.30;94.00;;;;;;4992842;28;19910;-81
2022/04/15 13:26:55;;;;;;;;;;;25.30;93.70;;;;;;4991965;28;20334;-81
2022/04/15 13:29:21;;;;;;;;;;;25.40;93.40;;;;;;4990916;28;20346;-81
2022/04/15 13:31:46;;;;;;;;;;;25.10;94.00;;;;;;4992857;28;20098;-81
2022/04/15 13:34:12;;;;;;;;;;;24.90;94.10;;;;;;4993745;28;20290;-82
2022/04/15 13:36:37;;;;;;;;;;;25.00;94.40;;;;;;4991493;28;20329;-81
2022/04/15 13:39:03;;;;;;;;;;;25.50;93.20;;;;;;4992233;28;19914;-82
2022/04/15 13:41:29;;;;;;;;;;;26.20;92.80;;;;;;4990309;28;19917;-82
2022/04/15 13:43:54;;;;;;;;;;;26.80;92.60;;;;;;4991859;28;19910;-82
2022/04/15 13:46:20;;;;;;;;;;;27.20;91.90;;;;;;4991199;28;19977;-81
2022/04/15 13:48:45;;;;;;;;;;;27.60;91.50;;;;;;4992679;28;20048;-82
2022/04/15 13:51:11;;;;;;;;;;;27.80;89.40;;;;;;4991512;28;19910;-82
2022/04/15 13:56:41;;;;;;;;;;;27.40;91.00;;;;;;4987255;28;19916;-82
2022/04/15 13:59:13;;;;;;;;;;;27.80;91.30;;;;;;4990256;28;19910;-82
2022/04/15 14:01:44;;;;;;;;;;;28.60;90.20;;;;;;4992579;28;19910;-82
2022/04/15 14:04:11;;;;;;;;;;;29.20;90.20;;;;;;4992006;28;19910;-82
2022/04/15 14:06:37;;;;;;;;;;;29.60;89.10;;;;;;4991476;28;19910;-82
2022/04/15 14:09:03;;;;;;;;;;;30.00;86.90;;;;;;4991273;28;19928;-82
2022/04/15 14:11:31;;;;;;;;;;;29.80;86.00;;;;;;4991998;28;19949;-82
2022/04/15 14:14:01;;;;;;;;;;;29.40;86.00;;;;;;4989576;28;19909;-82
2022/04/15 14:16:26;;;;;;;;;;;30.50;83.50;;;;;;4990329;28;19909;-82
2022/04/15 14:18:52;;;;;;;;;;;32.60;84.50;;;;;;4989697;28;19997;-82
2022/04/15 14:21:18;;;;;;;;;;;34.40;80.60;;;;;;4991266;28;20008;-82